Aérodrome :
LOGIN :

S'inscrire | Disclaimer

   EN    FR    IT 

 










Légende :    VFR   VFR Marginal   IFR   IFR Intensif   IFR Très Intensif
Visi : 
Plafond : 
>= 8 km
>= 3000ft
5 à 8 km
1000 à 3000 ft
1500m à 5 km
500 à 1000 ft
800 à 1500m
200 à 500 ft
< 800m
< 200 ft
Symboles :   Orages  Brouillard  Fortes neiges  Fortes précipitations  Vent > 20 kt
SIGMETs :   Divers  Orages  Givrage  Turbulence  Onde Orograph.  Cendres Volcan.






- Altitude de l'aérodrome : 392 ft
- Code IATA : CDG


LFPG - Paris-Aeroport Charles De Gaulle

DERNIER METAR :
  • 272100Z 25007KT CAVOK 04/M00 Q1015 NOSIG

METARs EXPIRÉS :
  • 272030Z 27007KT CAVOK 04/M00 Q1014 NOSIG
  • 272000Z 27008KT CAVOK 04/M00 Q1013 NOSIG
  • 271930Z 27009KT CAVOK 04/M00 Q1013 NOSIG
  • 271900Z 28008KT CAVOK 04/M00 Q1012 NOSIG
  • 271830Z 30011KT 9999 FEW030 05/M00 Q1011 NOSIG

TAF TAF LFPG
Valide du 27 à 18h jusqu'au 29 à 00h UTC


271700Z 2718/2824 31015KT 9999 BKN035 TX09/2822Z TN00/2805Z
TEMPO 2718/2719 31015G30KT
BECMG 2811/2813 18015G25KT 4000 -RA OVC012
BECMG 2814/2816 OVC008
TEMPO 2816/2824 BKN004
ATIS : +33 1 48 62 10 92



MET'MAP, la Météo Aéronautique d'un coup d'oeil ! - Copyright ORBIFLY Décembre 2007 - Disclaimer

ORBIFLY MET'MAP TEAM :

Programmation & Développement : Alexandra Zaïnal
Sur une idée originale de : Baudouin d'Aumeries
Assistance à la programmation : Marc-Olivier Méhu
Soutien technique & logistique : Manuel Goepfert

Contact : metmap@orbifly.com




SOURCES & CREDITS :

   NOAA